sensor_id;sensor_type;location;lat;lon;timestamp;pressure;altitude;pressure_sealevel;temperature;humidity
55656;BME280;41530;52.382;5.270;2022-07-01T00:01:50;101615.88;;;28.53;47.63
55656;BME280;41530;52.382;5.270;2022-07-01T00:04:16;101622.97;;;28.54;47.46
55656;BME280;41530;52.382;5.270;2022-07-01T00:06:43;101616.06;;;28.52;47.23
55656;BME280;41530;52.382;5.270;2022-07-01T00:09:09;101611.50;;;28.52;47.50
55656;BME280;41530;52.382;5.270;2022-07-01T00:11:36;101630.66;;;28.51;47.62
55656;BME280;41530;52.382;5.270;2022-07-01T00:14:03;101633.34;;;28.51;47.52
55656;BME280;41530;52.382;5.270;2022-07-01T00:16:29;101633.59;;;28.49;47.43
55656;BME280;41530;52.382;5.270;2022-07-01T00:18:56;101626.50;;;28.48;47.62
55656;BME280;41530;52.382;5.270;2022-07-01T00:21:23;101621.28;;;28.47;47.24
55656;BME280;41530;52.382;5.270;2022-07-01T00:23:49;101622.13;;;28.47;47.20
55656;BME280;41530;52.382;5.270;2022-07-01T00:26:16;101603.38;;;28.46;47.30
55656;BME280;41530;52.382;5.270;2022-07-01T00:28:42;101598.19;;;28.44;47.52
55656;BME280;41530;52.382;5.270;2022-07-01T00:31:09;101596.50;;;28.43;47.67
55656;BME280;41530;52.382;5.270;2022-07-01T00:33:35;101594.00;;;28.42;47.67
55656;BME280;41530;52.382;5.270;2022-07-01T00:36:02;101602.31;;;28.40;47.48
55656;BME280;41530;52.382;5.270;2022-07-01T00:38:29;101605.88;;;28.41;47.50
55656;BME280;41530;52.382;5.270;2022-07-01T00:40:56;101610.44;;;28.40;47.53
55656;BME280;41530;52.382;5.270;2022-07-01T00:43:23;101619.59;;;28.39;47.38
55656;BME280;41530;52.382;5.270;2022-07-01T00:46:11;101629.78;;;28.37;47.32
55656;BME280;41530;52.382;5.270;2022-07-01T00:48:38;101640.84;;;28.35;47.45
55656;BME280;41530;52.382;5.270;2022-07-01T00:51:06;101647.31;;;28.34;47.28
55656;BME280;41530;52.382;5.270;2022-07-01T00:53:33;101645.44;;;28.35;47.56
55656;BME280;41530;52.382;5.270;2022-07-01T00:56:00;101643.97;;;28.32;47.48
55656;BME280;41530;52.382;5.270;2022-07-01T00:58:27;101638.53;;;28.32;47.40
55656;BME280;41530;52.382;5.270;2022-07-01T01:00:57;101639.59;;;28.31;47.41
55656;BME280;41530;52.382;5.270;2022-07-01T01:03:26;101646.03;;;28.30;47.42
55656;BME280;41530;52.382;5.270;2022-07-01T01:05:53;101642.50;;;28.30;47.23
55656;BME280;41530;52.382;5.270;2022-07-01T01:08:23;101637.28;;;28.28;47.56
55656;BME280;41530;52.382;5.270;2022-07-01T01:10:50;101643.72;;;28.27;47.34
55656;BME280;41530;52.382;5.270;2022-07-01T01:13:17;101627.88;;;28.24;47.33
55656;BME280;41530;52.382;5.270;2022-07-01T01:15:43;101616.03;;;28.25;47.36
55656;BME280;41530;52.382;5.270;2022-07-01T01:18:10;101617.28;;;28.23;47.13
55656;BME280;41530;52.382;5.270;2022-07-01T01:20:37;101620.00;;;28.23;47.48
55656;BME280;41530;52.382;5.270;2022-07-01T01:23:04;101631.03;;;28.21;47.10
55656;BME280;41530;52.382;5.270;2022-07-01T01:25:32;101632.91;;;28.21;47.03
55656;BME280;41530;52.382;5.270;2022-07-01T01:27:59;101633.09;;;28.19;47.34
55656;BME280;41530;52.382;5.270;2022-07-01T01:30:26;101633.25;;;28.18;47.40
55656;BME280;41530;52.382;5.270;2022-07-01T01:32:58;101629.28;;;28.07;47.00
55656;BME280;41530;52.382;5.270;2022-07-01T01:35:25;101609.03;;;27.96;47.22
55656;BME280;41530;52.382;5.270;2022-07-01T01:38:09;101623.63;;;28.02;47.16
55656;BME280;41530;52.382;5.270;2022-07-01T01:40:47;101624.22;;;27.97;47.01
55656;BME280;41530;52.382;5.270;2022-07-01T01:43:31;101639.66;;;28.03;46.67
55656;BME280;41530;52.382;5.270;2022-07-01T01:46:10;101647.78;;;28.10;46.77
55656;BME280;41530;52.382;5.270;2022-07-01T01:48:41;101651.31;;;28.11;46.90
55656;BME280;41530;52.382;5.270;2022-07-01T01:51:22;101641.28;;;27.98;46.55
55656;BME280;41530;52.382;5.270;2022-07-01T01:53:57;101634.00;;;27.92;46.59
55656;BME280;41530;52.382;5.270;2022-07-01T01:56:50;101643.41;;;27.96;46.54
55656;BME280;41530;52.382;5.270;2022-07-01T01:59:31;101643.59;;;27.94;46.74
55656;BME280;41530;52.382;5.270;2022-07-01T02:01:58;101651.91;;;27.99;46.79
55656;BME280;41530;52.382;5.270;2022-07-01T02:04:34;101644.63;;;27.93;46.77
55656;BME280;41530;52.382;5.270;2022-07-01T02:07:13;101635.03;;;27.91;46.67
55656;BME280;41530;52.382;5.270;2022-07-01T02:09:47;101643.41;;;27.96;46.78
55656;BME280;41530;52.382;5.270;2022-07-01T02:12:30;101651.06;;;27.99;46.62
55656;BME280;41530;52.382;5.270;2022-07-01T02:15:34;101647.53;;;27.92;46.47
55656;BME280;41530;52.382;5.270;2022-07-01T02:18:13;101650.22;;;27.92;46.56
55656;BME280;41530;52.382;5.270;2022-07-01T02:21:05;101669.59;;;27.95;46.67
55656;BME280;41530;52.382;5.270;2022-07-01T02:24:10;101660.59;;;27.88;46.37
55656;BME280;41530;52.382;5.270;2022-07-01T02:26:56;101634.16;;;27.77;46.90
55656;BME280;41530;52.382;5.270;2022-07-01T02:29:23;101642.44;;;27.76;46.88
55656;BME280;41530;52.382;5.270;2022-07-01T02:32:08;101659.13;;;27.86;46.60
55656;BME280;41530;52.382;5.270;2022-07-01T02:37:51;101665.81;;;27.90;46.49
55656;BME280;41530;52.382;5.270;2022-07-01T02:40:20;101648.25;;;27.73;46.54
55656;BME280;41530;52.382;5.270;2022-07-01T02:45:46;101649.09;;;27.73;46.82
55656;BME280;41530;52.382;5.270;2022-07-01T02:48:44;101647.63;;;27.71;46.39
55656;BME280;41530;52.382;5.270;2022-07-01T02:51:12;101672.84;;;27.78;46.76
55656;BME280;41530;52.382;5.270;2022-07-01T02:54:00;101676.75;;;27.75;46.78
55656;BME280;41530;52.382;5.270;2022-07-01T02:56:43;101682.75;;;27.71;46.87
55656;BME280;41530;52.382;5.270;2022-07-01T02:59:23;101683.19;;;27.74;46.47
55656;BME280;41530;52.382;5.270;2022-07-01T03:02:02;101700.50;;;27.80;46.18
55656;BME280;41530;52.382;5.270;2022-07-01T03:04:43;101700.72;;;27.78;46.11
55656;BME280;41530;52.382;5.270;2022-07-01T03:07:12;101657.75;;;27.62;46.93
55656;BME280;41530;52.382;5.270;2022-07-01T03:10:18;101656.78;;;27.70;46.21
55656;BME280;41530;52.382;5.270;2022-07-01T03:12:56;101661.38;;;27.76;46.19
55656;BME280;41530;52.382;5.270;2022-07-01T03:15:29;101634.84;;;27.58;46.53
55656;BME280;41530;52.382;5.270;2022-07-01T03:18:04;101662.59;;;27.73;46.29
55656;BME280;41530;52.382;5.270;2022-07-01T03:20:43;101643.19;;;27.56;46.94
55656;BME280;41530;52.382;5.270;2022-07-01T03:23:24;101629.84;;;27.55;46.41
55656;BME280;41530;52.382;5.270;2022-07-01T03:25:59;101646.13;;;27.61;46.43
55656;BME280;41530;52.382;5.270;2022-07-01T03:28:43;101617.34;;;27.54;46.37
55656;BME280;41530;52.382;5.270;2022-07-01T03:31:20;101647.19;;;27.67;46.29
55656;BME280;41530;52.382;5.270;2022-07-01T03:33:58;101659.03;;;27.66;46.50
55656;BME280;41530;52.382;5.270;2022-07-01T03:36:28;101634.81;;;27.51;46.49
55656;BME280;41530;52.382;5.270;2022-07-01T03:38:56;101645.81;;;27.50;46.61
55656;BME280;41530;52.382;5.270;2022-07-01T03:41:23;101656.28;;;27.59;46.45
55656;BME280;41530;52.382;5.270;2022-07-01T03:44:20;101668.38;;;27.63;46.45
55656;BME280;41530;52.382;5.270;2022-07-01T03:46:53;101646.00;;;27.48;46.37
55656;BME280;41530;52.382;5.270;2022-07-01T03:49:25;101667.53;;;27.56;46.57
55656;BME280;41530;52.382;5.270;2022-07-01T03:52:20;101680.63;;;27.59;46.31
55656;BME280;41530;52.382;5.270;2022-07-01T03:55:26;101670.34;;;27.48;46.20
55656;BME280;41530;52.382;5.270;2022-07-01T03:58:09;101685.38;;;27.57;46.00
55656;BME280;41530;52.382;5.270;2022-07-01T04:00:37;101681.78;;;27.50;46.40
55656;BME280;41530;52.382;5.270;2022-07-01T04:03:16;101681.94;;;27.42;46.38
55656;BME280;41530;52.382;5.270;2022-07-01T04:05:48;101700.69;;;27.50;46.05
55656;BME280;41530;52.382;5.270;2022-07-01T04:08:16;101691.09;;;27.41;46.19
55656;BME280;41530;52.382;5.270;2022-07-01T04:10:58;101713.56;;;27.48;46.32
55656;BME280;41530;52.382;5.270;2022-07-01T04:13:37;101697.91;;;27.37;46.35
55656;BME280;41530;52.382;5.270;2022-07-01T04:16:20;101704.59;;;27.41;46.27
55656;BME280;41530;52.382;5.270;2022-07-01T04:19:03;101727.06;;;27.42;45.94
55656;BME280;41530;52.382;5.270;2022-07-01T04:21:48;101710.97;;;27.33;45.99
55656;BME280;41530;52.382;5.270;2022-07-01T04:24:37;101711.16;;;27.32;46.12
55656;BME280;41530;52.382;5.270;2022-07-01T04:27:36;101726.22;;;27.41;45.88
55656;BME280;41530;52.382;5.270;2022-07-01T04:30:17;101728.72;;;27.43;46.49
55656;BME280;41530;52.382;5.270;2022-07-01T04:32:44;101741.19;;;27.44;46.15
55656;BME280;41530;52.382;5.270;2022-07-01T04:35:11;101732.25;;;27.43;46.32
55656;BME280;41530;52.382;5.270;2022-07-01T04:37:39;101738.69;;;27.42;46.29
55656;BME280;41530;52.382;5.270;2022-07-01T04:40:07;101745.75;;;27.43;46.15
55656;BME280;41530;52.382;5.270;2022-07-01T04:42:33;101746.34;;;27.39;46.49
55656;BME280;41530;52.382;5.270;2022-07-01T04:45:00;101746.16;;;27.40;46.37
55656;BME280;41530;52.382;5.270;2022-07-01T04:47:26;101754.47;;;27.39;46.08
55656;BME280;41530;52.382;5.270;2022-07-01T04:49:58;101753.63;;;27.38;46.06
55656;BME280;41530;52.382;5.270;2022-07-01T04:52:25;101750.09;;;27.38;46.10
55656;BME280;41530;52.382;5.270;2022-07-01T04:54:52;101744.69;;;27.38;45.98
55656;BME280;41530;52.382;5.270;2022-07-01T04:57:19;101737.59;;;27.37;46.31
55656;BME280;41530;52.382;5.270;2022-07-01T04:59:46;101732.38;;;27.35;46.16
55656;BME280;41530;52.382;5.270;2022-07-01T05:02:12;101724.66;;;27.32;46.18
55656;BME280;41530;52.382;5.270;2022-07-01T05:04:39;101732.38;;;27.35;46.01
55656;BME280;41530;52.382;5.270;2022-07-01T05:07:07;101736.13;;;27.34;46.01
55656;BME280;41530;52.382;5.270;2022-07-01T05:09:57;101732.13;;;27.30;46.25
55656;BME280;41530;52.382;5.270;2022-07-01T05:12:25;101742.94;;;27.30;46.28
55656;BME280;41530;52.382;5.270;2022-07-01T05:14:51;101751.88;;;27.30;46.23
55656;BME280;41530;52.382;5.270;2022-07-01T05:17:18;101758.13;;;27.31;46.44
55656;BME280;41530;52.382;5.270;2022-07-01T05:19:45;101761.03;;;27.29;46.23
55656;BME280;41530;52.382;5.270;2022-07-01T05:22:30;101764.78;;;27.28;46.09
55656;BME280;41530;52.382;5.270;2022-07-01T05:24:56;101772.03;;;27.28;46.17
55656;BME280;41530;52.382;5.270;2022-07-01T05:27:23;101772.03;;;27.28;46.17
55656;BME280;41530;52.382;5.270;2022-07-01T05:29:51;101767.66;;;27.27;46.16
55656;BME280;41530;52.382;5.270;2022-07-01T05:32:18;101762.28;;;27.27;46.41
55656;BME280;41530;52.382;5.270;2022-07-01T05:34:45;101751.66;;;27.25;46.33
55656;BME280;41530;52.382;5.270;2022-07-01T05:37:11;101754.34;;;27.25;46.17
55656;BME280;41530;52.382;5.270;2022-07-01T05:39:38;101751.66;;;27.25;46.34
55656;BME280;41530;52.382;5.270;2022-07-01T05:42:12;101755.38;;;27.24;46.26
55656;BME280;41530;52.382;5.270;2022-07-01T05:44:38;101752.69;;;27.24;46.67
55656;BME280;41530;52.382;5.270;2022-07-01T05:47:05;101761.63;;;27.25;46.43
55656;BME280;41530;52.382;5.270;2022-07-01T05:49:33;101755.94;;;27.20;46.54
55656;BME280;41530;52.382;5.270;2022-07-01T05:51:59;101759.28;;;27.22;46.25
55656;BME280;41530;52.382;5.270;2022-07-01T05:54:26;101766.75;;;27.20;46.56
55656;BME280;41530;52.382;5.270;2022-07-01T05:56:52;101769.25;;;27.21;46.30
55656;BME280;41530;52.382;5.270;2022-07-01T05:59:19;101758.66;;;27.20;46.91
55656;BME280;41530;52.382;5.270;2022-07-01T06:01:45;101758.66;;;27.20;46.65
55656;BME280;41530;52.382;5.270;2022-07-01T06:04:13;101753.44;;;27.18;46.66
55656;BME280;41530;52.382;5.270;2022-07-01T06:06:40;101758.00;;;27.18;46.67
55656;BME280;41530;52.382;5.270;2022-07-01T06:09:06;101749.28;;;27.16;46.53
55656;BME280;41530;52.382;5.270;2022-07-01T06:11:33;101747.59;;;27.15;46.39
55656;BME280;41530;52.382;5.270;2022-07-01T06:13:59;101754.69;;;27.16;46.38
55656;BME280;41530;52.382;5.270;2022-07-01T06:16:26;101757.38;;;27.16;46.67
55656;BME280;41530;52.382;5.270;2022-07-01T06:18:57;101753.84;;;27.15;46.79
55656;BME280;41530;52.382;5.270;2022-07-01T06:21:23;101753.22;;;27.13;46.33
55656;BME280;41530;52.382;5.270;2022-07-01T06:23:50;101748.81;;;27.12;46.40
55656;BME280;41530;52.382;5.270;2022-07-01T06:26:16;101749.47;;;27.14;46.68
55656;BME280;41530;52.382;5.270;2022-07-01T06:28:43;101755.91;;;27.13;46.72
55656;BME280;41530;52.382;5.270;2022-07-01T06:31:09;101751.72;;;27.11;46.61
55656;BME280;41530;52.382;5.270;2022-07-01T06:33:36;101757.56;;;27.14;46.79
55656;BME280;41530;52.382;5.270;2022-07-01T06:36:03;101757.56;;;27.14;46.63
55656;BME280;41530;52.382;5.270;2022-07-01T06:38:29;101752.56;;;27.11;46.80
55656;BME280;41530;52.382;5.270;2022-07-01T06:40:56;101755.06;;;27.13;46.48
55656;BME280;41530;52.382;5.270;2022-07-01T06:43:41;101746.78;;;27.14;46.44
55656;BME280;41530;52.382;5.270;2022-07-01T06:46:09;101753.84;;;27.15;46.49
55656;BME280;41530;52.382;5.270;2022-07-01T06:48:36;101760.09;;;27.16;46.38
55656;BME280;41530;52.382;5.270;2022-07-01T06:51:03;101757.56;;;27.14;46.53
55656;BME280;41530;52.382;5.270;2022-07-01T06:53:30;101762.56;;;27.17;46.23
55656;BME280;41530;52.382;5.270;2022-07-01T06:55:57;101759.03;;;27.17;46.64
55656;BME280;41530;52.382;5.270;2022-07-01T06:58:23;101752.81;;;27.16;46.35
55656;BME280;41530;52.382;5.270;2022-07-01T07:00:50;101760.72;;;27.18;46.37
55656;BME280;41530;52.382;5.270;2022-07-01T07:03:16;101767.97;;;27.17;46.79
55656;BME280;41530;52.382;5.270;2022-07-01T07:05:43;101759.88;;;27.17;46.75
55656;BME280;41530;52.382;5.270;2022-07-01T07:08:10;101761.53;;;27.18;46.62
55656;BME280;41530;52.382;5.270;2022-07-01T07:10:36;101762.19;;;27.20;46.60
55656;BME280;41530;52.382;5.270;2022-07-01T07:13:03;101766.56;;;27.21;46.29
55656;BME280;41530;52.382;5.270;2022-07-01T07:15:30;101763.69;;;27.23;46.24
55656;BME280;41530;52.382;5.270;2022-07-01T07:17:56;101776.16;;;27.24;46.47
55656;BME280;41530;52.382;5.270;2022-07-01T07:20:24;101785.28;;;27.23;46.22
55656;BME280;41530;52.382;5.270;2022-07-01T07:22:51;101778.84;;;27.24;46.70
55656;BME280;41530;52.382;5.270;2022-07-01T07:25:19;101785.09;;;27.24;46.48
55656;BME280;41530;52.382;5.270;2022-07-01T07:27:45;101785.09;;;27.24;46.82
55656;BME280;41530;52.382;5.270;2022-07-01T07:30:13;101787.16;;;27.22;46.64
55656;BME280;41530;52.382;5.270;2022-07-01T07:32:39;101789.66;;;27.24;46.62
55656;BME280;41530;52.382;5.270;2022-07-01T07:35:07;101797.59;;;27.25;46.18
55656;BME280;41530;52.382;5.270;2022-07-01T07:37:34;101792.38;;;27.24;46.85
55656;BME280;41530;52.382;5.270;2022-07-01T07:40:01;101799.44;;;27.25;46.85
55656;BME280;41530;52.382;5.270;2022-07-01T07:42:29;101799.25;;;27.26;46.56
55656;BME280;41530;52.382;5.270;2022-07-01T07:44:56;101809.03;;;27.27;46.88
55656;BME280;41530;52.382;5.270;2022-07-01T07:47:23;101807.19;;;27.28;46.47
55656;BME280;41530;52.382;5.270;2022-07-01T07:49:49;101802.97;;;27.25;46.85
55656;BME280;41530;52.382;5.270;2022-07-01T07:52:16;101786.13;;;27.23;46.87
55656;BME280;41530;52.382;5.270;2022-07-01T07:54:42;101785.75;;;27.26;46.93
55656;BME280;41530;52.382;5.270;2022-07-01T07:57:09;101800.75;;;27.29;46.63
55656;BME280;41530;52.382;5.270;2022-07-01T07:59:35;101801.97;;;27.26;46.57
55656;BME280;41530;52.382;5.270;2022-07-01T08:02:02;101808.84;;;27.29;47.04
55656;BME280;41530;52.382;5.270;2022-07-01T08:04:29;101807.19;;;27.28;46.58
55656;BME280;41530;52.382;5.270;2022-07-01T08:06:56;101810.72;;;27.28;46.78
55656;BME280;41530;52.382;5.270;2022-07-01T08:09:22;101811.75;;;27.27;46.85
55656;BME280;41530;52.382;5.270;2022-07-01T08:11:49;101811.53;;;27.29;47.03
55656;BME280;41530;52.382;5.270;2022-07-01T08:14:15;101806.34;;;27.27;46.88
55656;BME280;41530;52.382;5.270;2022-07-01T08:16:48;101813.00;;;27.31;46.46
55656;BME280;41530;52.382;5.270;2022-07-01T08:19:15;101819.06;;;27.33;46.63
55656;BME280;41530;52.382;5.270;2022-07-01T08:21:41;101821.56;;;27.35;46.64
55656;BME280;41530;52.382;5.270;2022-07-01T08:24:08;101824.72;;;27.39;46.73
55656;BME280;41530;52.382;5.270;2022-07-01T08:26:35;101822.69;;;27.41;46.42
55656;BME280;41530;52.382;5.270;2022-07-01T08:29:01;101830.19;;;27.45;46.92
55656;BME280;41530;52.382;5.270;2022-07-01T08:31:28;101828.13;;;27.47;46.56
55656;BME280;41530;52.382;5.270;2022-07-01T08:33:55;101819.19;;;27.47;46.54
55656;BME280;41530;52.382;5.270;2022-07-01T08:36:21;101827.34;;;27.53;46.70
55656;BME280;41530;52.382;5.270;2022-07-01T08:38:48;101824.47;;;27.55;46.64
55656;BME280;41530;52.382;5.270;2022-07-01T08:41:16;101825.50;;;27.54;46.24
55656;BME280;41530;52.382;5.270;2022-07-01T08:43:43;101829.50;;;27.58;46.57
55656;BME280;41530;52.382;5.270;2022-07-01T08:46:11;101836.75;;;27.57;46.21
55656;BME280;41530;52.382;5.270;2022-07-01T08:48:42;101830.72;;;27.55;46.17
55656;BME280;41530;52.382;5.270;2022-07-01T08:51:09;101842.16;;;27.57;46.46
55656;BME280;41530;52.382;5.270;2022-07-01T08:53:36;101840.69;;;27.55;46.45
55656;BME280;41530;52.382;5.270;2022-07-01T08:56:03;101840.88;;;27.53;46.56
55656;BME280;41530;52.382;5.270;2022-07-01T08:58:50;101852.25;;;27.49;46.90
55656;BME280;41530;52.382;5.270;2022-07-01T09:01:24;101861.00;;;27.51;46.39
55656;BME280;41530;52.382;5.270;2022-07-01T09:03:54;101866.22;;;27.52;46.46
55656;BME280;41530;52.382;5.270;2022-07-01T09:06:23;101868.56;;;27.55;46.83
55656;BME280;41530;52.382;5.270;2022-07-01T09:08:50;101878.16;;;27.58;46.34
55656;BME280;41530;52.382;5.270;2022-07-01T09:11:18;101876.09;;;27.60;46.14
55656;BME280;41530;52.382;5.270;2022-07-01T09:13:45;101876.56;;;27.63;46.29
55656;BME280;41530;52.382;5.270;2022-07-01T09:16:39;101878.88;;;27.66;46.29
55656;BME280;41530;52.382;5.270;2022-07-01T09:19:06;101881.59;;;27.66;46.17
55656;BME280;41530;52.382;5.270;2022-07-01T09:21:33;101881.19;;;27.70;45.98
55656;BME280;41530;52.382;5.270;2022-07-01T09:24:22;101887.41;;;27.70;45.96
55656;BME280;41530;52.382;5.270;2022-07-01T09:26:56;101883.69;;;27.71;46.27
55656;BME280;41530;52.382;5.270;2022-07-01T09:29:28;101883.50;;;27.73;46.15
55656;BME280;41530;52.382;5.270;2022-07-01T09:31:55;101876.41;;;27.72;45.98
55656;BME280;41530;52.382;5.270;2022-07-01T09:34:22;101883.50;;;27.73;46.35
55656;BME280;41530;52.382;5.270;2022-07-01T09:36:56;101889.53;;;27.75;46.10
55656;BME280;41530;52.382;5.270;2022-07-01T09:39:24;101876.41;;;27.72;46.05
55656;BME280;41530;52.382;5.270;2022-07-01T09:42:06;101887.50;;;27.77;46.00
55656;BME280;41530;52.382;5.270;2022-07-01T09:44:33;101885.81;;;27.76;46.41
55656;BME280;41530;52.382;5.270;2022-07-01T09:47:00;101882.28;;;27.75;45.96
55656;BME280;41530;52.382;5.270;2022-07-01T09:49:28;101885.44;;;27.79;46.16
55656;BME280;41530;52.382;5.270;2022-07-01T09:51:54;101886.25;;;27.79;46.10
55656;BME280;41530;52.382;5.270;2022-07-01T09:54:21;101882.13;;;27.83;46.32
55656;BME280;41530;52.382;5.270;2022-07-01T09:56:48;101872.97;;;27.84;46.30
55656;BME280;41530;52.382;5.270;2022-07-01T09:59:16;101881.31;;;27.83;46.02
55656;BME280;41530;52.382;5.270;2022-07-01T10:01:44;101880.25;;;27.84;46.25
55656;BME280;41530;52.382;5.270;2022-07-01T10:04:12;101884.03;;;27.83;46.18
55656;BME280;41530;52.382;5.270;2022-07-01T10:06:46;101889.19;;;27.84;46.24
55656;BME280;41530;52.382;5.270;2022-07-01T10:12:24;101889.84;;;27.86;45.69
55656;BME280;41530;52.382;5.270;2022-07-01T10:14:56;101892.34;;;27.88;45.68
55656;BME280;41530;52.382;5.270;2022-07-01T10:17:29;101891.16;;;27.90;46.13
55656;BME280;41530;52.382;5.270;2022-07-01T10:20:05;101888.63;;;27.89;45.95
55656;BME280;41530;52.382;5.270;2022-07-01T10:22:35;101898.03;;;27.93;46.10
55656;BME280;41530;52.382;5.270;2022-07-01T10:25:40;101898.88;;;27.93;45.59
55656;BME280;41530;52.382;5.270;2022-07-01T10:28:18;101914.06;;;27.94;45.89
55656;BME280;41530;52.382;5.270;2022-07-01T10:33:40;101913.88;;;27.96;45.83
55656;BME280;41530;52.382;5.270;2022-07-01T10:36:14;101922.81;;;27.96;46.16
55656;BME280;41530;52.382;5.270;2022-07-01T10:41:31;101927.41;;;27.96;45.93
55656;BME280;41530;52.382;5.270;2022-07-01T10:44:02;101931.75;;;27.97;45.68
55656;BME280;41530;52.382;5.270;2022-07-01T10:46:50;101929.06;;;27.97;45.85
55656;BME280;41530;52.382;5.270;2022-07-01T10:52:13;101933.25;;;27.99;45.67
55656;BME280;41530;52.382;5.270;2022-07-01T10:54:50;101934.06;;;28.00;45.99
55656;BME280;41530;52.382;5.270;2022-07-01T10:57:22;101925.97;;;28.00;45.95
55656;BME280;41530;52.382;5.270;2022-07-01T11:02:21;101937.44;;;28.02;45.96
55656;BME280;41530;52.382;5.270;2022-07-01T11:04:50;101929.13;;;28.03;45.85
55656;BME280;41530;52.382;5.270;2022-07-01T11:07:17;101936.41;;;28.03;46.29
55656;BME280;41530;52.382;5.270;2022-07-01T11:09:44;101944.31;;;28.05;46.24
55656;BME280;41530;52.382;5.270;2022-07-01T11:12:14;101926.41;;;28.03;45.90
55656;BME280;41530;52.382;5.270;2022-07-01T11:14:42;101917.66;;;28.01;46.19
55656;BME280;41530;52.382;5.270;2022-07-01T11:17:10;101933.69;;;28.03;45.89
55656;BME280;41530;52.382;5.270;2022-07-01T11:19:37;101933.50;;;28.05;46.09
55656;BME280;41530;52.382;5.270;2022-07-01T11:22:04;101933.50;;;28.05;46.03
55656;BME280;41530;52.382;5.270;2022-07-01T11:24:32;101933.06;;;28.01;46.11
55656;BME280;41530;52.382;5.270;2022-07-01T11:27:08;101934.53;;;28.03;45.53
55656;BME280;41530;52.382;5.270;2022-07-01T11:29:35;101939.09;;;28.03;45.79
55656;BME280;41530;52.382;5.270;2022-07-01T11:32:03;101938.06;;;28.04;45.71
55656;BME280;41530;52.382;5.270;2022-07-01T11:34:30;101938.06;;;28.04;45.66
55656;BME280;41530;52.382;5.270;2022-07-01T11:36:57;101943.50;;;28.04;45.79
55656;BME280;41530;52.382;5.270;2022-07-01T11:39:46;101940.97;;;28.02;45.86
55656;BME280;41530;52.382;5.270;2022-07-01T11:42:13;101945.16;;;28.05;46.11
55656;BME280;41530;52.382;5.270;2022-07-01T11:44:43;101939.75;;;28.05;45.90
55656;BME280;41530;52.382;5.270;2022-07-01T11:47:12;101939.75;;;28.05;45.72
55656;BME280;41530;52.382;5.270;2022-07-01T11:49:46;101942.25;;;28.07;45.50
55656;BME280;41530;52.382;5.270;2022-07-01T11:52:14;101927.25;;;28.04;45.71
55656;BME280;41530;52.382;5.270;2022-07-01T11:54:45;101926.88;;;28.07;45.54
55656;BME280;41530;52.382;5.270;2022-07-01T11:57:17;101927.06;;;28.06;45.77
55656;BME280;41530;52.382;5.270;2022-07-01T11:59:47;101920.16;;;28.03;45.75
55656;BME280;41530;52.382;5.270;2022-07-01T12:02:14;101918.09;;;28.05;45.86
55656;BME280;41530;52.382;5.270;2022-07-01T12:04:42;101917.72;;;28.08;45.92
55656;BME280;41530;52.382;5.270;2022-07-01T12:07:10;101921.84;;;28.04;45.75
55656;BME280;41530;52.382;5.270;2022-07-01T12:09:37;101928.72;;;28.07;45.46
55656;BME280;41530;52.382;5.270;2022-07-01T12:12:06;101926.88;;;28.07;45.99
55656;BME280;41530;52.382;5.270;2022-07-01T12:14:34;101915.41;;;28.05;45.98
55656;BME280;41530;52.382;5.270;2022-07-01T12:17:05;101923.72;;;28.03;45.74
55656;BME280;41530;52.382;5.270;2022-07-01T12:19:40;101916.88;;;28.08;45.72
55656;BME280;41530;52.382;5.270;2022-07-01T12:22:10;101914.38;;;28.06;45.79
55656;BME280;41530;52.382;5.270;2022-07-01T12:24:38;101926.88;;;28.07;45.50
55656;BME280;41530;52.382;5.270;2022-07-01T12:27:06;101923.13;;;28.08;45.51
55656;BME280;41530;52.382;5.270;2022-07-01T12:32:14;101917.72;;;28.08;45.76
55656;BME280;41530;52.382;5.270;2022-07-01T12:34:58;101926.03;;;28.07;45.56
55656;BME280;41530;52.382;5.270;2022-07-01T12:40:00;101940.22;;;28.09;45.60
55656;BME280;41530;52.382;5.270;2022-07-01T12:42:32;101931.88;;;28.10;45.93
55656;BME280;41530;52.382;5.270;2022-07-01T12:45:07;101934.78;;;28.09;45.86
55656;BME280;41530;52.382;5.270;2022-07-01T12:47:48;101922.50;;;28.06;45.54
55656;BME280;41530;52.382;5.270;2022-07-01T12:50:24;101936.47;;;28.10;45.74
55656;BME280;41530;52.382;5.270;2022-07-01T12:53:12;101937.88;;;28.06;45.50
55656;BME280;41530;52.382;5.270;2022-07-01T12:55:48;101938.53;;;28.08;45.42
55656;BME280;41530;52.382;5.270;2022-07-01T12:58:21;101944.59;;;28.10;45.22
55656;BME280;41530;52.382;5.270;2022-07-01T13:00:51;101953.50;;;28.10;45.51
55656;BME280;41530;52.382;5.270;2022-07-01T13:03:23;101960.59;;;28.11;45.48
55656;BME280;41530;52.382;5.270;2022-07-01T13:05:51;101958.72;;;28.12;45.90
55656;BME280;41530;52.382;5.270;2022-07-01T13:08:18;101956.03;;;28.12;45.38
55656;BME280;41530;52.382;5.270;2022-07-01T13:10:46;101968.53;;;28.13;45.68
55656;BME280;41530;52.382;5.270;2022-07-01T13:13:14;101959.56;;;28.12;45.82
55656;BME280;41530;52.382;5.270;2022-07-01T13:15:41;101973.94;;;28.13;45.54
55656;BME280;41530;52.382;5.270;2022-07-01T13:18:07;101969.34;;;28.13;45.89
55656;BME280;41530;52.382;5.270;2022-07-01T13:20:35;101976.63;;;28.13;45.41
55656;BME280;41530;52.382;5.270;2022-07-01T13:23:02;101966.84;;;28.12;45.39
55656;BME280;41530;52.382;5.270;2022-07-01T13:25:28;101968.13;;;28.16;45.34
55656;BME280;41530;52.382;5.270;2022-07-01T13:27:55;101970.00;;;28.15;45.67
55656;BME280;41530;52.382;5.270;2022-07-01T13:30:21;101971.69;;;28.16;45.33
55656;BME280;41530;52.382;5.270;2022-07-01T13:32:48;101975.22;;;28.17;45.65
55656;BME280;41530;52.382;5.270;2022-07-01T13:35:20;101974.19;;;28.18;45.32
55656;BME280;41530;52.382;5.270;2022-07-01T13:37:47;101975.22;;;28.17;45.35